sensor_id;sensor_type;location;lat;lon;timestamp;P1;durP1;ratioP1;P2;durP2;ratioP2
1563;SDS011;775;51.958;7.976;2023-02-28T00:00:36;15.10;;;5.90;;
1563;SDS011;775;51.958;7.976;2023-02-28T00:03:04;15.40;;;6.70;;
1563;SDS011;775;51.958;7.976;2023-02-28T00:05:32;14.67;;;6.23;;
1563;SDS011;775;51.958;7.976;2023-02-28T00:07:59;17.10;;;6.20;;
1563;SDS011;775;51.958;7.976;2023-02-28T00:10:27;13.97;;;5.50;;
1563;SDS011;775;51.958;7.976;2023-02-28T00:12:56;14.93;;;5.77;;
1563;SDS011;775;51.958;7.976;2023-02-28T00:15:23;16.60;;;6.17;;
1563;SDS011;775;51.958;7.976;2023-02-28T00:17:51;14.70;;;5.67;;
1563;SDS011;775;51.958;7.976;2023-02-28T00:20:18;14.80;;;5.00;;
1563;SDS011;775;51.958;7.976;2023-02-28T00:22:47;16.10;;;6.40;;
1563;SDS011;775;51.958;7.976;2023-02-28T00:25:16;14.90;;;5.27;;
1563;SDS011;775;51.958;7.976;2023-02-28T00:27:43;13.33;;;5.40;;
1563;SDS011;775;51.958;7.976;2023-02-28T00:30:11;13.57;;;5.17;;
1563;SDS011;775;51.958;7.976;2023-02-28T00:32:38;13.77;;;5.90;;
1563;SDS011;775;51.958;7.976;2023-02-28T00:35:06;13.50;;;5.40;;
1563;SDS011;775;51.958;7.976;2023-02-28T00:37:34;14.67;;;5.50;;
1563;SDS011;775;51.958;7.976;2023-02-28T00:40:02;12.27;;;4.97;;
1563;SDS011;775;51.958;7.976;2023-02-28T00:42:31;17.47;;;4.87;;
1563;SDS011;775;51.958;7.976;2023-02-28T00:44:58;14.43;;;4.80;;
1563;SDS011;775;51.958;7.976;2023-02-28T00:47:25;13.47;;;4.93;;
1563;SDS011;775;51.958;7.976;2023-02-28T00:49:52;13.77;;;5.00;;
1563;SDS011;775;51.958;7.976;2023-02-28T00:52:20;13.40;;;3.90;;
1563;SDS011;775;51.958;7.976;2023-02-28T00:54:47;14.57;;;4.50;;
1563;SDS011;775;51.958;7.976;2023-02-28T00:57:15;12.63;;;4.83;;
1563;SDS011;775;51.958;7.976;2023-02-28T00:59:43;12.20;;;3.87;;
1563;SDS011;775;51.958;7.976;2023-02-28T01:02:10;11.97;;;4.13;;
1563;SDS011;775;51.958;7.976;2023-02-28T01:04:37;11.50;;;4.10;;
1563;SDS011;775;51.958;7.976;2023-02-28T01:07:04;14.23;;;4.40;;
1563;SDS011;775;51.958;7.976;2023-02-28T01:09:31;13.33;;;4.57;;
1563;SDS011;775;51.958;7.976;2023-02-28T01:11:58;13.40;;;4.47;;
1563;SDS011;775;51.958;7.976;2023-02-28T01:14:26;14.17;;;5.30;;
1563;SDS011;775;51.958;7.976;2023-02-28T01:16:53;11.40;;;3.83;;
1563;SDS011;775;51.958;7.976;2023-02-28T01:19:21;12.70;;;4.30;;
1563;SDS011;775;51.958;7.976;2023-02-28T01:21:48;12.70;;;4.30;;
1563;SDS011;775;51.958;7.976;2023-02-28T01:24:15;11.60;;;4.07;;
1563;SDS011;775;51.958;7.976;2023-02-28T01:26:42;13.30;;;4.70;;
1563;SDS011;775;51.958;7.976;2023-02-28T01:29:09;13.07;;;5.07;;
1563;SDS011;775;51.958;7.976;2023-02-28T01:31:37;13.17;;;4.53;;
1563;SDS011;775;51.958;7.976;2023-02-28T01:34:04;15.30;;;5.20;;
1563;SDS011;775;51.958;7.976;2023-02-28T01:36:31;13.17;;;3.97;;
1563;SDS011;775;51.958;7.976;2023-02-28T01:38:58;14.07;;;4.53;;
1563;SDS011;775;51.958;7.976;2023-02-28T01:41:27;14.90;;;5.13;;
1563;SDS011;775;51.958;7.976;2023-02-28T01:43:56;12.70;;;4.20;;
1563;SDS011;775;51.958;7.976;2023-02-28T01:46:23;13.10;;;4.77;;
1563;SDS011;775;51.958;7.976;2023-02-28T01:48:53;13.60;;;5.20;;
1563;SDS011;775;51.958;7.976;2023-02-28T01:51:22;15.87;;;5.73;;
1563;SDS011;775;51.958;7.976;2023-02-28T01:53:52;13.23;;;4.43;;
1563;SDS011;775;51.958;7.976;2023-02-28T01:56:22;13.47;;;5.20;;
1563;SDS011;775;51.958;7.976;2023-02-28T01:58:51;12.77;;;4.97;;
1563;SDS011;775;51.958;7.976;2023-02-28T02:01:18;13.90;;;4.60;;
1563;SDS011;775;51.958;7.976;2023-02-28T02:03:47;14.57;;;5.00;;
1563;SDS011;775;51.958;7.976;2023-02-28T02:06:21;13.30;;;5.53;;
1563;SDS011;775;51.958;7.976;2023-02-28T02:08:48;15.13;;;4.90;;
1563;SDS011;775;51.958;7.976;2023-02-28T02:11:17;16.40;;;4.80;;
1563;SDS011;775;51.958;7.976;2023-02-28T02:13:50;14.33;;;5.00;;
1563;SDS011;775;51.958;7.976;2023-02-28T02:16:23;13.50;;;5.13;;
1563;SDS011;775;51.958;7.976;2023-02-28T02:18:53;13.10;;;4.40;;
1563;SDS011;775;51.958;7.976;2023-02-28T02:26:59;14.27;;;4.77;;
1563;SDS011;775;51.958;7.976;2023-02-28T02:29:40;12.43;;;4.87;;
1563;SDS011;775;51.958;7.976;2023-02-28T02:32:13;12.00;;;4.57;;
1563;SDS011;775;51.958;7.976;2023-02-28T02:34:46;14.87;;;5.20;;
1563;SDS011;775;51.958;7.976;2023-02-28T02:37:22;12.73;;;4.60;;
1563;SDS011;775;51.958;7.976;2023-02-28T02:39:54;12.50;;;4.67;;
1563;SDS011;775;51.958;7.976;2023-02-28T02:42:24;13.40;;;4.27;;
1563;SDS011;775;51.958;7.976;2023-02-28T02:44:55;12.63;;;3.70;;
1563;SDS011;775;51.958;7.976;2023-02-28T02:47:26;14.10;;;4.27;;
1563;SDS011;775;51.958;7.976;2023-02-28T02:49:56;14.10;;;4.27;;
1563;SDS011;775;51.958;7.976;2023-02-28T02:52:25;13.23;;;4.90;;
1563;SDS011;775;51.958;7.976;2023-02-28T02:54:54;11.20;;;3.60;;
1563;SDS011;775;51.958;7.976;2023-02-28T02:57:23;13.10;;;4.87;;
1563;SDS011;775;51.958;7.976;2023-02-28T02:59:51;15.40;;;4.20;;
1563;SDS011;775;51.958;7.976;2023-02-28T03:02:19;17.23;;;4.47;;
1563;SDS011;775;51.958;7.976;2023-02-28T03:04:48;13.30;;;4.87;;
1563;SDS011;775;51.958;7.976;2023-02-28T03:07:18;13.53;;;4.23;;
1563;SDS011;775;51.958;7.976;2023-02-28T03:09:51;14.73;;;4.80;;
1563;SDS011;775;51.958;7.976;2023-02-28T03:12:19;16.10;;;4.50;;
1563;SDS011;775;51.958;7.976;2023-02-28T03:14:50;13.53;;;4.27;;
1563;SDS011;775;51.958;7.976;2023-02-28T03:17:22;13.90;;;4.50;;
1563;SDS011;775;51.958;7.976;2023-02-28T03:19:52;12.60;;;4.30;;
1563;SDS011;775;51.958;7.976;2023-02-28T03:22:30;13.53;;;4.30;;
1563;SDS011;775;51.958;7.976;2023-02-28T03:25:02;14.40;;;4.07;;
1563;SDS011;775;51.958;7.976;2023-02-28T03:27:33;12.80;;;4.77;;
1563;SDS011;775;51.958;7.976;2023-02-28T03:30:04;15.10;;;4.43;;
1563;SDS011;775;51.958;7.976;2023-02-28T03:32:33;14.30;;;4.07;;
1563;SDS011;775;51.958;7.976;2023-02-28T03:35:02;11.40;;;3.97;;
1563;SDS011;775;51.958;7.976;2023-02-28T03:37:34;12.17;;;3.93;;
1563;SDS011;775;51.958;7.976;2023-02-28T03:40:02;12.03;;;4.10;;
1563;SDS011;775;51.958;7.976;2023-02-28T03:42:34;13.87;;;4.87;;
1563;SDS011;775;51.958;7.976;2023-02-28T03:45:04;13.13;;;4.60;;
1563;SDS011;775;51.958;7.976;2023-02-28T03:47:34;16.23;;;5.00;;
1563;SDS011;775;51.958;7.976;2023-02-28T03:50:07;12.93;;;4.53;;
1563;SDS011;775;51.958;7.976;2023-02-28T03:52:37;14.33;;;4.50;;
1563;SDS011;775;51.958;7.976;2023-02-28T03:55:06;16.33;;;5.77;;
1563;SDS011;775;51.958;7.976;2023-02-28T03:57:37;15.43;;;4.47;;
1563;SDS011;775;51.958;7.976;2023-02-28T04:00:06;13.83;;;4.50;;
1563;SDS011;775;51.958;7.976;2023-02-28T04:02:34;14.17;;;5.17;;
1563;SDS011;775;51.958;7.976;2023-02-28T04:05:01;13.10;;;4.53;;
1563;SDS011;775;51.958;7.976;2023-02-28T04:07:28;12.80;;;4.77;;
1563;SDS011;775;51.958;7.976;2023-02-28T04:10:03;13.90;;;4.60;;
1563;SDS011;775;51.958;7.976;2023-02-28T04:12:30;16.30;;;5.37;;
1563;SDS011;775;51.958;7.976;2023-02-28T04:14:58;11.93;;;3.80;;
1563;SDS011;775;51.958;7.976;2023-02-28T04:17:25;12.33;;;4.07;;
1563;SDS011;775;51.958;7.976;2023-02-28T04:19:52;12.33;;;4.43;;
1563;SDS011;775;51.958;7.976;2023-02-28T04:22:22;13.93;;;5.13;;
1563;SDS011;775;51.958;7.976;2023-02-28T04:24:50;13.17;;;4.07;;
1563;SDS011;775;51.958;7.976;2023-02-28T04:27:20;15.20;;;4.20;;
1563;SDS011;775;51.958;7.976;2023-02-28T04:29:47;12.20;;;4.10;;
1563;SDS011;775;51.958;7.976;2023-02-28T04:32:14;14.90;;;4.90;;
1563;SDS011;775;51.958;7.976;2023-02-28T04:34:41;12.97;;;4.67;;
1563;SDS011;775;51.958;7.976;2023-02-28T04:37:09;12.20;;;4.50;;
1563;SDS011;775;51.958;7.976;2023-02-28T04:39:36;12.00;;;4.47;;
1563;SDS011;775;51.958;7.976;2023-02-28T04:42:03;13.10;;;4.03;;
1563;SDS011;775;51.958;7.976;2023-02-28T04:44:32;15.00;;;5.00;;
1563;SDS011;775;51.958;7.976;2023-02-28T04:46:59;14.53;;;4.03;;
1563;SDS011;775;51.958;7.976;2023-02-28T04:49:26;14.70;;;4.87;;
1563;SDS011;775;51.958;7.976;2023-02-28T04:51:53;12.50;;;4.53;;
1563;SDS011;775;51.958;7.976;2023-02-28T04:54:20;11.87;;;4.53;;
1563;SDS011;775;51.958;7.976;2023-02-28T04:56:48;13.23;;;4.90;;
1563;SDS011;775;51.958;7.976;2023-02-28T04:59:15;12.67;;;5.17;;
1563;SDS011;775;51.958;7.976;2023-02-28T05:01:44;14.60;;;4.90;;
1563;SDS011;775;51.958;7.976;2023-02-28T05:04:12;13.23;;;4.70;;
1563;SDS011;775;51.958;7.976;2023-02-28T05:06:39;13.10;;;4.93;;
1563;SDS011;775;51.958;7.976;2023-02-28T05:09:06;13.20;;;5.03;;
1563;SDS011;775;51.958;7.976;2023-02-28T05:11:33;14.90;;;5.37;;
1563;SDS011;775;51.958;7.976;2023-02-28T05:14:01;12.83;;;4.87;;
1563;SDS011;775;51.958;7.976;2023-02-28T05:16:28;13.23;;;5.20;;
1563;SDS011;775;51.958;7.976;2023-02-28T05:18:57;14.30;;;4.73;;
1563;SDS011;775;51.958;7.976;2023-02-28T05:21:26;12.33;;;4.97;;
1563;SDS011;775;51.958;7.976;2023-02-28T05:23:53;13.57;;;5.40;;
1563;SDS011;775;51.958;7.976;2023-02-28T05:26:21;12.90;;;4.80;;
1563;SDS011;775;51.958;7.976;2023-02-28T05:28:48;12.37;;;4.30;;
1563;SDS011;775;51.958;7.976;2023-02-28T05:31:15;11.90;;;4.50;;
1563;SDS011;775;51.958;7.976;2023-02-28T05:33:42;16.67;;;5.63;;
1563;SDS011;775;51.958;7.976;2023-02-28T05:36:10;13.10;;;5.40;;
1563;SDS011;775;51.958;7.976;2023-02-28T05:38:37;11.43;;;4.17;;
1563;SDS011;775;51.958;7.976;2023-02-28T05:41:05;12.70;;;5.63;;
1563;SDS011;775;51.958;7.976;2023-02-28T05:43:32;12.70;;;4.90;;
1563;SDS011;775;51.958;7.976;2023-02-28T05:46:01;15.27;;;5.37;;
1563;SDS011;775;51.958;7.976;2023-02-28T05:48:28;12.67;;;4.33;;
1563;SDS011;775;51.958;7.976;2023-02-28T05:50:56;13.00;;;4.80;;
1563;SDS011;775;51.958;7.976;2023-02-28T05:53:25;13.37;;;4.43;;
1563;SDS011;775;51.958;7.976;2023-02-28T05:55:52;12.87;;;4.57;;
1563;SDS011;775;51.958;7.976;2023-02-28T05:58:19;13.87;;;5.17;;
1563;SDS011;775;51.958;7.976;2023-02-28T06:00:46;15.47;;;4.87;;
1563;SDS011;775;51.958;7.976;2023-02-28T06:03:14;13.33;;;5.30;;
1563;SDS011;775;51.958;7.976;2023-02-28T06:05:41;13.40;;;4.50;;
1563;SDS011;775;51.958;7.976;2023-02-28T06:08:08;16.23;;;7.00;;
1563;SDS011;775;51.958;7.976;2023-02-28T06:10:36;13.60;;;4.70;;
1563;SDS011;775;51.958;7.976;2023-02-28T06:13:04;13.40;;;5.30;;
1563;SDS011;775;51.958;7.976;2023-02-28T06:15:31;12.70;;;5.40;;
1563;SDS011;775;51.958;7.976;2023-02-28T06:17:58;11.97;;;4.43;;
1563;SDS011;775;51.958;7.976;2023-02-28T06:20:26;11.97;;;4.53;;
1563;SDS011;775;51.958;7.976;2023-02-28T06:22:56;12.60;;;4.40;;
1563;SDS011;775;51.958;7.976;2023-02-28T06:25:24;13.50;;;4.40;;
1563;SDS011;775;51.958;7.976;2023-02-28T06:27:53;13.90;;;4.13;;
1563;SDS011;775;51.958;7.976;2023-02-28T06:30:20;10.90;;;3.97;;
1563;SDS011;775;51.958;7.976;2023-02-28T06:32:50;17.30;;;4.30;;
1563;SDS011;775;51.958;7.976;2023-02-28T06:35:17;14.10;;;4.10;;
1563;SDS011;775;51.958;7.976;2023-02-28T06:37:44;15.43;;;4.37;;
1563;SDS011;775;51.958;7.976;2023-02-28T06:40:12;12.80;;;4.27;;
1563;SDS011;775;51.958;7.976;2023-02-28T06:42:39;12.47;;;4.03;;
1563;SDS011;775;51.958;7.976;2023-02-28T06:45:10;12.60;;;4.40;;
1563;SDS011;775;51.958;7.976;2023-02-28T06:47:38;12.73;;;4.50;;
1563;SDS011;775;51.958;7.976;2023-02-28T06:50:06;16.53;;;4.43;;
1563;SDS011;775;51.958;7.976;2023-02-28T06:52:34;11.80;;;3.83;;
1563;SDS011;775;51.958;7.976;2023-02-28T06:55:02;14.40;;;4.03;;
1563;SDS011;775;51.958;7.976;2023-02-28T06:57:29;14.03;;;4.47;;
1563;SDS011;775;51.958;7.976;2023-02-28T06:59:57;13.37;;;4.10;;
1563;SDS011;775;51.958;7.976;2023-02-28T07:02:26;14.87;;;4.63;;
1563;SDS011;775;51.958;7.976;2023-02-28T07:04:53;13.43;;;5.13;;
1563;SDS011;775;51.958;7.976;2023-02-28T07:07:20;13.23;;;4.50;;
1563;SDS011;775;51.958;7.976;2023-02-28T07:09:47;18.80;;;5.40;;
1563;SDS011;775;51.958;7.976;2023-02-28T07:12:15;15.43;;;4.63;;
1563;SDS011;775;51.958;7.976;2023-02-28T07:14:42;14.13;;;4.87;;
1563;SDS011;775;51.958;7.976;2023-02-28T07:17:09;14.77;;;4.83;;
1563;SDS011;775;51.958;7.976;2023-02-28T07:19:38;12.63;;;4.17;;
1563;SDS011;775;51.958;7.976;2023-02-28T07:22:05;11.80;;;4.33;;
1563;SDS011;775;51.958;7.976;2023-02-28T07:24:32;14.20;;;3.77;;
1563;SDS011;775;51.958;7.976;2023-02-28T07:27:00;13.97;;;4.10;;
1563;SDS011;775;51.958;7.976;2023-02-28T07:29:27;15.83;;;5.70;;
1563;SDS011;775;51.958;7.976;2023-02-28T07:31:54;14.67;;;5.47;;
1563;SDS011;775;51.958;7.976;2023-02-28T07:34:21;14.93;;;4.47;;
1563;SDS011;775;51.958;7.976;2023-02-28T07:36:51;12.20;;;4.67;;
1563;SDS011;775;51.958;7.976;2023-02-28T07:39:19;13.70;;;4.57;;
1563;SDS011;775;51.958;7.976;2023-02-28T07:41:46;15.13;;;4.60;;
1563;SDS011;775;51.958;7.976;2023-02-28T07:44:13;13.90;;;4.47;;
1563;SDS011;775;51.958;7.976;2023-02-28T07:46:40;18.40;;;4.97;;
1563;SDS011;775;51.958;7.976;2023-02-28T07:49:07;14.30;;;4.17;;
1563;SDS011;775;51.958;7.976;2023-02-28T07:51:35;11.83;;;4.10;;
1563;SDS011;775;51.958;7.976;2023-02-28T07:54:03;12.83;;;4.40;;
1563;SDS011;775;51.958;7.976;2023-02-28T07:56:30;14.73;;;4.33;;
1563;SDS011;775;51.958;7.976;2023-02-28T07:58:57;14.63;;;4.17;;
1563;SDS011;775;51.958;7.976;2023-02-28T08:01:24;13.43;;;4.87;;
1563;SDS011;775;51.958;7.976;2023-02-28T08:03:52;13.77;;;5.50;;
1563;SDS011;775;51.958;7.976;2023-02-28T08:06:20;14.80;;;6.23;;
1563;SDS011;775;51.958;7.976;2023-02-28T08:08:48;17.23;;;5.73;;
1563;SDS011;775;51.958;7.976;2023-02-28T08:11:17;15.30;;;5.53;;
1563;SDS011;775;51.958;7.976;2023-02-28T08:13:44;15.27;;;6.10;;
1563;SDS011;775;51.958;7.976;2023-02-28T08:16:12;14.03;;;6.00;;
1563;SDS011;775;51.958;7.976;2023-02-28T08:18:42;14.33;;;5.97;;
1563;SDS011;775;51.958;7.976;2023-02-28T08:21:09;12.77;;;4.90;;
1563;SDS011;775;51.958;7.976;2023-02-28T08:23:37;14.70;;;4.50;;
1563;SDS011;775;51.958;7.976;2023-02-28T08:26:04;12.83;;;4.70;;
1563;SDS011;775;51.958;7.976;2023-02-28T08:28:32;13.23;;;5.13;;
1563;SDS011;775;51.958;7.976;2023-02-28T08:30:59;14.40;;;5.33;;
1563;SDS011;775;51.958;7.976;2023-02-28T08:33:27;15.70;;;6.03;;
1563;SDS011;775;51.958;7.976;2023-02-28T08:35:54;17.50;;;5.77;;
1563;SDS011;775;51.958;7.976;2023-02-28T08:38:21;14.80;;;4.67;;
1563;SDS011;775;51.958;7.976;2023-02-28T08:40:49;16.90;;;5.40;;
1563;SDS011;775;51.958;7.976;2023-02-28T08:43:16;12.80;;;4.73;;
1563;SDS011;775;51.958;7.976;2023-02-28T08:45:44;13.90;;;4.73;;
1563;SDS011;775;51.958;7.976;2023-02-28T08:48:11;18.13;;;4.10;;
1563;SDS011;775;51.958;7.976;2023-02-28T08:50:38;12.53;;;4.20;;
1563;SDS011;775;51.958;7.976;2023-02-28T08:53:05;14.17;;;4.30;;
1563;SDS011;775;51.958;7.976;2023-02-28T08:55:32;14.03;;;4.57;;
1563;SDS011;775;51.958;7.976;2023-02-28T08:58:00;14.30;;;4.57;;
1563;SDS011;775;51.958;7.976;2023-02-28T09:00:27;21.33;;;7.03;;
1563;SDS011;775;51.958;7.976;2023-02-28T09:02:55;17.60;;;5.20;;
1563;SDS011;775;51.958;7.976;2023-02-28T09:05:22;13.03;;;3.60;;
1563;SDS011;775;51.958;7.976;2023-02-28T09:07:49;13.50;;;4.10;;
1563;SDS011;775;51.958;7.976;2023-02-28T09:10:16;14.27;;;3.40;;
1563;SDS011;775;51.958;7.976;2023-02-28T09:12:44;15.47;;;4.20;;
1563;SDS011;775;51.958;7.976;2023-02-28T09:15:12;13.40;;;4.03;;
1563;SDS011;775;51.958;7.976;2023-02-28T09:17:39;12.30;;;3.67;;
1563;SDS011;775;51.958;7.976;2023-02-28T09:20:08;11.63;;;2.97;;
1563;SDS011;775;51.958;7.976;2023-02-28T09:22:35;10.50;;;3.10;;
1563;SDS011;775;51.958;7.976;2023-02-28T09:25:03;12.23;;;3.20;;
1563;SDS011;775;51.958;7.976;2023-02-28T09:27:30;12.30;;;3.33;;
1563;SDS011;775;51.958;7.976;2023-02-28T09:29:57;11.40;;;3.40;;
1563;SDS011;775;51.958;7.976;2023-02-28T09:32:24;13.43;;;4.10;;
1563;SDS011;775;51.958;7.976;2023-02-28T09:34:51;11.60;;;3.23;;
1563;SDS011;775;51.958;7.976;2023-02-28T09:37:20;12.10;;;2.77;;
1563;SDS011;775;51.958;7.976;2023-02-28T09:39:47;9.57;;;2.60;;
1563;SDS011;775;51.958;7.976;2023-02-28T09:42:18;10.40;;;2.60;;
1563;SDS011;775;51.958;7.976;2023-02-28T09:44:48;12.50;;;3.17;;
1563;SDS011;775;51.958;7.976;2023-02-28T09:47:17;16.00;;;2.83;;
1563;SDS011;775;51.958;7.976;2023-02-28T09:49:45;10.13;;;2.73;;
1563;SDS011;775;51.958;7.976;2023-02-28T09:52:14;9.90;;;2.47;;
1563;SDS011;775;51.958;7.976;2023-02-28T09:54:43;10.60;;;3.13;;
1563;SDS011;775;51.958;7.976;2023-02-28T09:57:13;10.10;;;2.80;;
1563;SDS011;775;51.958;7.976;2023-02-28T09:59:47;9.50;;;2.53;;
1563;SDS011;775;51.958;7.976;2023-02-28T10:02:19;10.07;;;2.40;;
1563;SDS011;775;51.958;7.976;2023-02-28T10:04:49;9.40;;;2.03;;
1563;SDS011;775;51.958;7.976;2023-02-28T10:07:22;9.50;;;2.20;;
1563;SDS011;775;51.958;7.976;2023-02-28T10:09:57;10.03;;;2.53;;
1563;SDS011;775;51.958;7.976;2023-02-28T10:12:25;9.13;;;1.83;;
1563;SDS011;775;51.958;7.976;2023-02-28T10:14:52;9.43;;;2.10;;
1563;SDS011;775;51.958;7.976;2023-02-28T10:17:21;9.80;;;2.87;;
1563;SDS011;775;51.958;7.976;2023-02-28T10:19:51;10.73;;;2.23;;
1563;SDS011;775;51.958;7.976;2023-02-28T10:22:21;10.97;;;2.07;;
1563;SDS011;775;51.958;7.976;2023-02-28T10:24:51;9.40;;;2.23;;
1563;SDS011;775;51.958;7.976;2023-02-28T10:27:20;8.77;;;2.20;;
1563;SDS011;775;51.958;7.976;2023-02-28T10:29:49;8.77;;;1.80;;
1563;SDS011;775;51.958;7.976;2023-02-28T10:32:16;9.10;;;2.23;;
1563;SDS011;775;51.958;7.976;2023-02-28T10:34:44;9.00;;;2.07;;
1563;SDS011;775;51.958;7.976;2023-02-28T10:37:11;8.80;;;1.80;;
1563;SDS011;775;51.958;7.976;2023-02-28T10:39:41;10.13;;;2.20;;
1563;SDS011;775;51.958;7.976;2023-02-28T10:42:25;9.10;;;2.17;;
1563;SDS011;775;51.958;7.976;2023-02-28T10:45:06;9.27;;;1.90;;
1563;SDS011;775;51.958;7.976;2023-02-28T10:47:33;8.63;;;1.67;;
1563;SDS011;775;51.958;7.976;2023-02-28T10:50:01;12.53;;;2.60;;
1563;SDS011;775;51.958;7.976;2023-02-28T10:52:36;10.87;;;2.17;;
1563;SDS011;775;51.958;7.976;2023-02-28T10:55:14;9.07;;;1.80;;
1563;SDS011;775;51.958;7.976;2023-02-28T10:57:42;9.00;;;2.30;;
1563;SDS011;775;51.958;7.976;2023-02-28T11:00:13;9.17;;;2.33;;
1563;SDS011;775;51.958;7.976;2023-02-28T11:02:40;9.40;;;2.53;;
1563;SDS011;775;51.958;7.976;2023-02-28T11:05:29;9.30;;;2.10;;
1563;SDS011;775;51.958;7.976;2023-02-28T11:07:58;9.63;;;2.37;;
1563;SDS011;775;51.958;7.976;2023-02-28T11:10:27;9.00;;;2.07;;
1563;SDS011;775;51.958;7.976;2023-02-28T11:12:57;9.70;;;2.00;;
1563;SDS011;775;51.958;7.976;2023-02-28T11:15:25;9.20;;;1.83;;
1563;SDS011;775;51.958;7.976;2023-02-28T11:17:53;9.00;;;2.27;;
1563;SDS011;775;51.958;7.976;2023-02-28T11:20:21;9.67;;;2.20;;
1563;SDS011;775;51.958;7.976;2023-02-28T11:22:50;10.07;;;2.20;;
1563;SDS011;775;51.958;7.976;2023-02-28T11:25:19;11.50;;;2.20;;
1563;SDS011;775;51.958;7.976;2023-02-28T11:27:47;9.20;;;1.97;;
1563;SDS011;775;51.958;7.976;2023-02-28T11:30:27;10.20;;;2.83;;
1563;SDS011;775;51.958;7.976;2023-02-28T11:32:54;10.40;;;2.50;;
1563;SDS011;775;51.958;7.976;2023-02-28T11:35:23;9.57;;;2.40;;
1563;SDS011;775;51.958;7.976;2023-02-28T11:37:51;9.60;;;2.50;;
1563;SDS011;775;51.958;7.976;2023-02-28T11:40:18;9.03;;;2.07;;
1563;SDS011;775;51.958;7.976;2023-02-28T11:42:57;10.20;;;2.63;;
1563;SDS011;775;51.958;7.976;2023-02-28T11:45:36;9.53;;;2.57;;
1563;SDS011;775;51.958;7.976;2023-02-28T11:48:09;9.90;;;2.53;;
1563;SDS011;775;51.958;7.976;2023-02-28T11:50:40;10.07;;;3.23;;
1563;SDS011;775;51.958;7.976;2023-02-28T11:53:11;9.70;;;2.40;;
1563;SDS011;775;51.958;7.976;2023-02-28T11:55:42;9.30;;;2.50;;
1563;SDS011;775;51.958;7.976;2023-02-28T11:58:14;11.53;;;2.67;;
1563;SDS011;775;51.958;7.976;2023-02-28T12:00:48;9.10;;;2.33;;
1563;SDS011;775;51.958;7.976;2023-02-28T12:03:26;10.10;;;2.93;;
1563;SDS011;775;51.958;7.976;2023-02-28T12:05:56;10.53;;;2.67;;
1563;SDS011;775;51.958;7.976;2023-02-28T12:08:26;12.00;;;2.87;;
1563;SDS011;775;51.958;7.976;2023-02-28T12:11:05;9.70;;;2.37;;
1563;SDS011;775;51.958;7.976;2023-02-28T12:13:36;11.20;;;2.67;;
1563;SDS011;775;51.958;7.976;2023-02-28T12:16:12;12.07;;;2.63;;
1563;SDS011;775;51.958;7.976;2023-02-28T12:18:49;9.33;;;2.67;;
1563;SDS011;775;51.958;7.976;2023-02-28T12:21:18;9.43;;;2.30;;
1563;SDS011;775;51.958;7.976;2023-02-28T12:23:53;10.03;;;2.57;;
1563;SDS011;775;51.958;7.976;2023-02-28T12:26:23;9.93;;;2.30;;
1563;SDS011;775;51.958;7.976;2023-02-28T12:28:54;10.77;;;2.40;;
1563;SDS011;775;51.958;7.976;2023-02-28T12:31:26;8.87;;;2.13;;
1563;SDS011;775;51.958;7.976;2023-02-28T12:33:56;8.90;;;2.13;;
1563;SDS011;775;51.958;7.976;2023-02-28T12:36:23;9.30;;;2.10;;
1563;SDS011;775;51.958;7.976;2023-02-28T12:38:53;8.97;;;2.10;;
1563;SDS011;775;51.958;7.976;2023-02-28T12:41:22;10.20;;;2.67;;
1563;SDS011;775;51.958;7.976;2023-02-28T12:43:55;9.40;;;2.30;;
1563;SDS011;775;51.958;7.976;2023-02-28T12:46:27;9.63;;;2.37;;
1563;SDS011;775;51.958;7.976;2023-02-28T12:48:56;8.87;;;1.97;;
1563;SDS011;775;51.958;7.976;2023-02-28T12:51:25;12.33;;;2.50;;
1563;SDS011;775;51.958;7.976;2023-02-28T12:53:55;9.30;;;2.30;;
1563;SDS011;775;51.958;7.976;2023-02-28T12:56:29;9.90;;;2.43;;
1563;SDS011;775;51.958;7.976;2023-02-28T12:59:01;10.73;;;2.50;;
1563;SDS011;775;51.958;7.976;2023-02-28T13:01:45;11.70;;;3.20;;
1563;SDS011;775;51.958;7.976;2023-02-28T13:04:27;14.03;;;4.57;;
1563;SDS011;775;51.958;7.976;2023-02-28T13:07:08;11.97;;;3.67;;
1563;SDS011;775;51.958;7.976;2023-02-28T13:09:40;9.43;;;2.40;;
1563;SDS011;775;51.958;7.976;2023-02-28T13:12:12;10.30;;;3.50;;
1563;SDS011;775;51.958;7.976;2023-02-28T13:14:39;9.50;;;2.30;;
1563;SDS011;775;51.958;7.976;2023-02-28T13:17:11;10.60;;;2.33;;
1563;SDS011;775;51.958;7.976;2023-02-28T13:19:40;9.67;;;2.57;;
1563;SDS011;775;51.958;7.976;2023-02-28T13:22:15;9.13;;;1.83;;
1563;SDS011;775;51.958;7.976;2023-02-28T13:24:44;8.57;;;1.67;;
1563;SDS011;775;51.958;7.976;2023-02-28T13:29:57;11.23;;;3.37;;
1563;SDS011;775;51.958;7.976;2023-02-28T13:35:13;8.37;;;1.80;;
1563;SDS011;775;51.958;7.976;2023-02-28T13:37:42;9.97;;;2.27;;
1563;SDS011;775;51.958;7.976;2023-02-28T13:40:29;9.30;;;2.47;;
1563;SDS011;775;51.958;7.976;2023-02-28T13:43:02;9.20;;;1.90;;
1563;SDS011;775;51.958;7.976;2023-02-28T13:45:30;9.53;;;1.80;;
1563;SDS011;775;51.958;7.976;2023-02-28T13:48:03;9.37;;;2.10;;
1563;SDS011;775;51.958;7.976;2023-02-28T13:50:33;9.80;;;2.50;;
1563;SDS011;775;51.958;7.976;2023-02-28T13:55:45;10.10;;;1.70;;
1563;SDS011;775;51.958;7.976;2023-02-28T13:58:24;9.27;;;2.00;;
1563;SDS011;775;51.958;7.976;2023-02-28T14:01:03;12.00;;;2.10;;
1563;SDS011;775;51.958;7.976;2023-02-28T14:03:35;9.30;;;1.90;;
1563;SDS011;775;51.958;7.976;2023-02-28T14:06:14;10.73;;;2.53;;
1563;SDS011;775;51.958;7.976;2023-02-28T14:08:45;8.73;;;1.90;;
1563;SDS011;775;51.958;7.976;2023-02-28T14:11:23;9.80;;;2.03;;
1563;SDS011;775;51.958;7.976;2023-02-28T14:13:51;9.63;;;2.70;;
1563;SDS011;775;51.958;7.976;2023-02-28T14:16:20;9.60;;;2.30;;
1563;SDS011;775;51.958;7.976;2023-02-28T14:18:49;11.87;;;2.80;;
1563;SDS011;775;51.958;7.976;2023-02-28T14:21:21;9.53;;;2.80;;
1563;SDS011;775;51.958;7.976;2023-02-28T14:26:51;9.97;;;2.10;;
1563;SDS011;775;51.958;7.976;2023-02-28T14:29:27;9.80;;;2.20;;
1563;SDS011;775;51.958;7.976;2023-02-28T14:31:57;11.47;;;2.30;;
1563;SDS011;775;51.958;7.976;2023-02-28T14:34:35;11.33;;;2.80;;
1563;SDS011;775;51.958;7.976;2023-02-28T14:37:05;11.90;;;3.50;;
1563;SDS011;775;51.958;7.976;2023-02-28T14:39:33;10.67;;;2.80;;
1563;SDS011;775;51.958;7.976;2023-02-28T14:42:01;12.40;;;3.53;;
1563;SDS011;775;51.958;7.976;2023-02-28T14:44:30;13.77;;;3.40;;
1563;SDS011;775;51.958;7.976;2023-02-28T14:46:57;11.23;;;2.80;;
1563;SDS011;775;51.958;7.976;2023-02-28T14:49:29;18.63;;;2.67;;
1563;SDS011;775;51.958;7.976;2023-02-28T14:52:05;10.10;;;2.50;;
1563;SDS011;775;51.958;7.976;2023-02-28T14:54:36;9.90;;;2.37;;
1563;SDS011;775;51.958;7.976;2023-02-28T14:57:03;10.17;;;2.60;;
1563;SDS011;775;51.958;7.976;2023-02-28T14:59:31;9.60;;;2.60;;
1563;SDS011;775;51.958;7.976;2023-02-28T15:02:21;9.40;;;2.10;;
1563;SDS011;775;51.958;7.976;2023-02-28T15:04:55;11.47;;;2.70;;
1563;SDS011;775;51.958;7.976;2023-02-28T15:07:23;9.00;;;2.33;;
1563;SDS011;775;51.958;7.976;2023-02-28T15:10:07;11.50;;;2.80;;
1563;SDS011;775;51.958;7.976;2023-02-28T15:12:35;9.50;;;2.37;;
1563;SDS011;775;51.958;7.976;2023-02-28T15:15:02;10.60;;;3.00;;
1563;SDS011;775;51.958;7.976;2023-02-28T15:17:30;11.67;;;3.33;;
1563;SDS011;775;51.958;7.976;2023-02-28T15:19:57;10.77;;;3.10;;
1563;SDS011;775;51.958;7.976;2023-02-28T15:22:26;11.70;;;3.30;;
1563;SDS011;775;51.958;7.976;2023-02-28T15:24:54;9.87;;;2.67;;
1563;SDS011;775;51.958;7.976;2023-02-28T15:27:24;11.53;;;2.27;;
1563;SDS011;775;51.958;7.976;2023-02-28T15:29:53;12.23;;;2.70;;
1563;SDS011;775;51.958;7.976;2023-02-28T15:32:24;10.13;;;2.60;;
1563;SDS011;775;51.958;7.976;2023-02-28T15:34:51;10.00;;;2.50;;
1563;SDS011;775;51.958;7.976;2023-02-28T15:37:26;9.70;;;3.43;;
1563;SDS011;775;51.958;7.976;2023-02-28T15:39:55;10.20;;;2.60;;
1563;SDS011;775;51.958;7.976;2023-02-28T15:42:28;10.00;;;2.40;;
1563;SDS011;775;51.958;7.976;2023-02-28T15:44:58;9.17;;;2.40;;
1563;SDS011;775;51.958;7.976;2023-02-28T15:47:26;10.17;;;2.40;;